Results by/Résultats par Info:[email protected] Phone: (613)260-0994

                                     K-TOWN TRIATHLON
                    
                                   Sunday August 6, 2006

                           Confederation Park, Kingston, Ontario
                    
                                Overall Results - Duathlon

  -----FINAL----- ----------------------- ------------ -------------------- ----            4km                         30 km                   7.2 km         
                                                       Category                     ------RUN + T1--------    ----------BIKE--------    -------RUN + T2------- ------
    Pos     Time  Name                    City         Plc/Total Category     #      Cat  Ovr  Time     km     Cat Ovr Time  km/hr      Cat  Ovr  Time     km  Penalty
  ------  ------- ----------------------- ------------ -------------------- ----    ----------------------    ----------------------    ---------------------- ------
    1     1:29:11 Peter DOYLE             Denver (Auro   1/1   Elite Men     664           1   14:17  3:35           2   47:40  37.8            1   27:14  3:47         
    2     1:34:47 Bob TYSEN               Kingston       1/6   M50 - 54      642           5   16:35  4:09           1   47:37  37.8            2   30:36  4:15         
    3     1:38:05 Rob DROUGHAN            Toronto        1/11  M45 - 49      643           7   16:49  4:13           3   48:15  37.3            8   33:02  4:36         
    4     1:40:30 Richard INCE            Whitby         2/11  M45 - 49      678           3   16:26  4:07           5   52:27  34.3            5   31:38  4:24         
    5     1:42:36 Bill TRENHAILE          Newburgh       3/11  M45 - 49      654           4   16:34  4:09          11   54:24  33.1            6   31:39  4:24         
    6     1:43:17 Rick MCEACHRAN          Ottawa         1/6   M30 - 34      623           6   16:40  4:10           8   53:42  33.5            7   32:56  4:35         
    7     1:43:46 Allan ANDERSON          Ottawa         4/11  M45 - 49      636           9   17:14  4:19           7   53:23  33.7            9   33:09  4:37         
    8     1:44:19 Michael MAGILL          Kingston       5/11  M45 - 49      635          16   17:56  4:29           6   52:59  34.0           10   33:25  4:39         
    9     1:44:25 Jeffrey MINICOLA        Peterborough   6/11  M45 - 49      674          12   17:29  4:23           4   52:14  34.5           14   34:42  4:50         
   10     1:44:54 Neil HOPKINS            Kingston       1/7   M35 - 39      628           2   16:14  4:04          23   58:05  31.0            3   30:37  4:16         
   11     1:45:29 Jim MURRAY              Gananoque      7/11  M45 - 49      676          10   17:27  4:22           9   53:52  33.4           12   34:11  4:45         
   12     1:45:49 Emily KLASSEN           Kingston       1/2   Junior Women  606          14   17:52  4:28          16   56:24  31.9            4   31:33  4:23         
   13     1:46:03 David SLY               Kingston       2/7   M35 - 39      632          15   17:55  4:29          10   53:58  33.4           13   34:11  4:45         
   14     1:49:44 Peter HOAKEN            London         3/7   M35 - 39      669          13   17:51  4:28          15   56:13  32.0           16   35:41  4:58         
   15     1:50:32 Paul GAVEL              Bracebridge    1/2   M55 - 59      602          21   19:07  4:47          14   55:16  32.6           17   36:10  5:02         
   16     1:52:16 Brian EVERITT           Kingston       1/7   M40 - 44      662          18   18:52  4:43          28   59:41  30.2           11   33:44  4:41         
   17     1:52:59 DArcy LEMAY             Richelain      1/5   M25 - 29      646          36   20:28  5:07          13   54:56  32.8           24   37:36  5:14         
   18     1:54:11 Alexandre BOUDREAULT    Gatineau       2/5   M25 - 29      673          22   19:14  4:49          25   58:48  30.6           18   36:10  5:02         
   19     1:54:16 Scott SPENCER           Kingston       2/6   M30 - 34      659          11   17:28  4:22          37 1:01:09  29.4           15   35:39  4:58         
   20     1:54:17 Daniel SEGURA           Kingston       4/7   M35 - 39      634           8   17:06  4:17          33 1:00:35  29.7           20   36:37  5:06         
   21     1:54:25 Tyler MOON              Amherstview    3/5   M25 - 29      655          29   19:53  4:59          19   57:35  31.3           22   36:58  5:08         
   22     1:54:27 Elizabeth HOLMES        Oxford Stati   1/4   W30 - 34      661          32   19:59  5:00          12   54:47  32.9           30   39:41  5:31         
   23     1:54:47 Vincent Andy FONG       Kanata         2/7   M40 - 44      604          27   19:48  4:57          22   57:49  31.1           23   37:11  5:10         
   24     1:55:55 Joan SCIBETTA           Brewerton      1/3   W40 - 44      612          24   19:27  4:52          29   59:51  30.1           21   36:38  5:06         
   25     1:56:39 Peter KINGSTON          Kingston       2/6   M50 - 54      625          23   19:21  4:51          27   59:40  30.2           25   37:39  5:14         
   26 CLY 1:57:40 Stephen CARTER          Kingston       3/6   M30 - 34      627          17   18:35  4:39          18   57:30  31.3           38   41:35  5:47         
   27     1:57:42 David BACKMAN           Ottawa         4/6   M30 - 34      668          33   20:03  5:01          20   57:41  31.2           33   39:59  5:34         
   28     1:57:49 Ian CRAWFORD            Kingston       3/6   M50 - 54      617          35   20:22  5:06          24   58:46  30.6           28   38:43  5:23         
   29     1:57:55 Terry HODGE             Brockville     3/7   M40 - 44      653          42   21:32  5:23          21   57:43  31.2           27   38:41  5:23         
   30     1:58:26 Tim KINGSTON            Kingston       4/6   M50 - 54      666          26   19:45  4:57          26   59:10  30.4           29   39:32  5:30         
   31     1:59:09 Irwin STREIGHT          Kingston       8/11  M45 - 49      675          38   20:38  5:10          32 1:00:34  29.7           26   37:58  5:17         
   32     2:00:13 Jamie HINCHEY           Kingston       4/5   M25 - 29      679          19   18:54  4:44          48 1:04:53  27.7           19   36:27  5:04         
   33     2:01:00 Eddie CHOI              Newmarket      5/6   M30 - 34      614          28   19:52  4:58          35 1:00:59  29.5           34   40:10  5:35         
   34     2:01:06 Robert ALLEN            Kingston       4/7   M40 - 44      603          25   19:35  4:54          31 1:00:28  29.8           37   41:04  5:43         
   35     2:02:53 William MASON           Tottenham      1/2   M20 - 24      672          45   22:00  5:30          36 1:01:05  29.5           32   39:49  5:32         
   36     2:03:23 Andrew PAQUIN           Inverary       6/6   M30 - 34      637          30   19:54  4:59          40 1:02:29  28.8           36   41:01  5:42         
   37     2:05:32 Fran CRAWFORD           Kingston       1/5   W45 - 49      620          50   22:33  5:39          38 1:01:24  29.3           39   41:36  5:47         
   38     2:05:46 Eddy LLOYD              Kingston       5/6   M50 - 54      626          41   21:15  5:19          30 1:00:19  29.8           49   44:12  6:09         
   39     2:06:08 Richard KUNOW           Oakville       5/7   M40 - 44      629          52   23:16  5:49          34 1:00:58  29.5           40   41:55  5:50         
   40     2:08:22 Gary MAXWELL            Ottawa         6/6   M50 - 54      618          47   22:03  5:31          41 1:02:42  28.7           45   43:37  6:04         
   41     2:09:20 Todd JACKSON            Kingston       2/2   M20 - 24      640          37   20:30  5:08          42 1:02:44  28.7           54   46:06  6:25         
   42     2:09:22 Kevin COLLINS           Elginburg      5/7   M35 - 39      670          20   18:57  4:45          57 1:09:44  25.8           35   40:42  5:40         
   43     2:10:23 Emily ROSS              Kingston       1/3   W20 - 24      660          53   23:26  5:52          52 1:07:13  26.8           31   39:45  5:32         
   44     2:11:09 Suzan BALLANTYNE        Ottawa         2/5   W45 - 49      677          55   24:04  6:01          44 1:03:00  28.6           48   44:05  6:08         
   45     2:11:12 Tiffany LANGILLE        Kingston       2/4   W30 - 34      658          44   21:49  5:28          47 1:03:47  28.2           53   45:36  6:20         
   46     2:11:43 Mark MCCRADY            Sydenham       6/7   M35 - 39      663          31   19:58  5:00          55 1:08:03  26.5           46   43:43  6:05         
   47     2:12:33 Donna RICHARDSON        Kingston       3/5   W45 - 49      641          48   22:12  5:33          49 1:05:53  27.3           50   44:29  6:11         
   48     2:13:17 Barry MCKAIG            London         9/11  M45 - 49      616          43   21:42  5:26          46 1:03:39  28.3           56   47:56  6:40         
   49     2:13:53 Matthew HALL            Kingston       1/1   Junior Men    621          59   24:25  6:07          53 1:07:19  26.7           41   42:10  5:52         
   50     2:14:27 Danny ROSE              Belleville     6/7   M40 - 44      605          39   20:52  5:13          58 1:10:23  25.6           44   43:13  6:01         
   51     2:15:54 Sheila KINGSTON         Kingston       1/1   W50 - 54      624          51   23:09  5:48          56 1:08:11  26.4           51   44:35  6:12         
   52     2:15:55 Pj MARSHALL             Kingston       1/1   M60 - 64      647          49   22:25  5:37          59 1:10:24  25.6           43   43:06  6:00         
   53     2:16:06 Kristi HUFF             Kingston       2/3   W20 - 24      665          40   21:11  5:18          62 1:12:19  24.9           42   42:37  5:56         
   54     2:16:29 Shirley LINDENBERG      Belleville     4/5   W45 - 49      608          57   24:20  6:05          43 1:02:51  28.6           58   49:19  6:51         
   55     2:18:10 Ignacio GARCIA          Brockville     5/5   M25 - 29      638          64   26:38  6:40          17   57:04  31.5           63   54:29  7:35         
   56     2:18:54 Tony GODINHO            Kingston       7/7   M40 - 44      630          54   23:33  5:54          50 1:06:19  27.1           57   49:02  6:49         
   57     2:20:41 Louise HUNTER           Kingston       5/5   W45 - 49      650          60   24:48  6:12          60 1:12:02  25.0           47   43:52  6:06         
   58     2:21:58 Laura CRUSE             Kingston       2/3   W40 - 44      652          61   24:52  6:13          61 1:12:08  25.0           52   44:59  6:15         
   59     2:22:06 Campbell PATTERSON      Kingston      10/11  M45 - 49      633          63   26:07  6:32          39 1:02:26  28.8           62   53:34  7:27         
   60     2:23:11 Colleen DECKER          Kingston       3/3   W20 - 24      656          46   22:01  5:31          66 1:14:09  24.3           55   47:01  6:32         
   61     2:27:40 Tara REYNOLDS           Kingston       3/4   W30 - 34      619          56   24:08  6:02          63 1:12:21  24.9           60   51:13  7:07         
   62     2:27:46 Dennis DOHERTY          Kingston       1/1   M65 - 69      610          58   24:23  6:06          64 1:12:38  24.8           59   50:46  7:03         
   63     2:37:17 Patty MAILEY            Kingston       3/3   W40 - 44      607          66   29:44  7:26          54 1:07:33  26.6           65 1:00:01  8:21         
   64     2:37:19 David MAILEY            Kingston      11/11  M45 - 49      648          69   30:40  7:40          51 1:06:37  27.0           66 1:00:03  8:21         
   65     2:39:54 Debra HERR              Ki             1/2   W55 - 59      651          62   25:56  6:29          68 1:21:30  22.1           61   52:29  7:18         
   66 CLY 2:41:21 Mike WALKER             Kingston       2/2   M55 - 59      622          65   29:21  7:21          65 1:13:38  24.4           64   58:23  8:07         
   67     3:01:36 Nadia DIAKUN            Oxford Mills   2/2   W55 - 59      601          68   30:40  7:40          67 1:18:44  22.9           67 1:12:13 10:02         
   68 CLY 3:13:23 Fred T. PEREL           Kingston       7/7   M35 - 39      657          70   31:44  7:56          69 1:24:45  21.2           69 1:16:54 10:41         
   69     3:19:24 Amie DOMINGO            Kingston       4/4   W30 - 34      613          67   30:09  7:33          70 1:34:08  19.1           68 1:15:07 10:26         
   70             Ashley TRENHAILE        Newburgh       2/2   Junior Women  667          34   20:12  5:03          45 1:03:22  28.4